sensor_id;sensor_type;location;lat;lon;timestamp;P1;durP1;ratioP1;P2;durP2;ratioP2
21754;SDS011;11039;50.028;19.938;2023-04-05T00:01:28;4.15;;;2.50;;
21754;SDS011;11039;50.028;19.938;2023-04-05T00:03:55;4.40;;;2.25;;
21754;SDS011;11039;50.028;19.938;2023-04-05T00:06:25;4.03;;;2.40;;
21754;SDS011;11039;50.028;19.938;2023-04-05T00:08:53;3.88;;;2.63;;
21754;SDS011;11039;50.028;19.938;2023-04-05T00:11:22;4.35;;;2.40;;
21754;SDS011;11039;50.028;19.938;2023-04-05T00:13:49;3.92;;;2.45;;
21754;SDS011;11039;50.028;19.938;2023-04-05T00:16:15;5.25;;;2.80;;
21754;SDS011;11039;50.028;19.938;2023-04-05T00:18:41;4.85;;;2.80;;
21754;SDS011;11039;50.028;19.938;2023-04-05T00:21:14;3.90;;;2.80;;
21754;SDS011;11039;50.028;19.938;2023-04-05T00:23:40;4.90;;;3.00;;
21754;SDS011;11039;50.028;19.938;2023-04-05T00:26:09;3.58;;;2.35;;
21754;SDS011;11039;50.028;19.938;2023-04-05T00:28:35;4.82;;;2.70;;
21754;SDS011;11039;50.028;19.938;2023-04-05T00:31:01;6.57;;;2.85;;
21754;SDS011;11039;50.028;19.938;2023-04-05T00:33:27;3.83;;;2.50;;
21754;SDS011;11039;50.028;19.938;2023-04-05T00:35:53;5.88;;;3.20;;
21754;SDS011;11039;50.028;19.938;2023-04-05T00:38:19;4.40;;;2.53;;
21754;SDS011;11039;50.028;19.938;2023-04-05T00:40:45;4.15;;;2.63;;
21754;SDS011;11039;50.028;19.938;2023-04-05T00:43:11;5.00;;;2.80;;
21754;SDS011;11039;50.028;19.938;2023-04-05T00:45:37;5.32;;;3.10;;
21754;SDS011;11039;50.028;19.938;2023-04-05T00:48:04;4.78;;;2.50;;
21754;SDS011;11039;50.028;19.938;2023-04-05T00:50:30;4.45;;;2.90;;
21754;SDS011;11039;50.028;19.938;2023-04-05T00:52:56;4.50;;;2.83;;
21754;SDS011;11039;50.028;19.938;2023-04-05T00:55:23;3.85;;;2.78;;
21754;SDS011;11039;50.028;19.938;2023-04-05T00:57:51;5.18;;;3.03;;
21754;SDS011;11039;50.028;19.938;2023-04-05T01:00:18;3.95;;;2.53;;
21754;SDS011;11039;50.028;19.938;2023-04-05T01:02:49;4.45;;;3.05;;
21754;SDS011;11039;50.028;19.938;2023-04-05T01:08:04;5.68;;;2.97;;
21754;SDS011;11039;50.028;19.938;2023-04-05T01:10:34;4.93;;;2.92;;
21754;SDS011;11039;50.028;19.938;2023-04-05T01:13:02;5.38;;;3.10;;
21754;SDS011;11039;50.028;19.938;2023-04-05T01:15:28;4.93;;;3.08;;
21754;SDS011;11039;50.028;19.938;2023-04-05T01:17:54;4.43;;;3.13;;
21754;SDS011;11039;50.028;19.938;2023-04-05T01:20:21;5.38;;;3.65;;
21754;SDS011;11039;50.028;19.938;2023-04-05T01:25:26;4.40;;;2.80;;
21754;SDS011;11039;50.028;19.938;2023-04-05T01:30:49;4.57;;;3.10;;
21754;SDS011;11039;50.028;19.938;2023-04-05T01:36:17;5.38;;;3.45;;
21754;SDS011;11039;50.028;19.938;2023-04-05T01:38:37;4.90;;;3.15;;
21754;SDS011;11039;50.028;19.938;2023-04-05T01:41:03;4.32;;;2.90;;
21754;SDS011;11039;50.028;19.938;2023-04-05T01:43:29;4.65;;;2.88;;
21754;SDS011;11039;50.028;19.938;2023-04-05T01:45:55;4.38;;;3.00;;
21754;SDS011;11039;50.028;19.938;2023-04-05T01:48:21;4.72;;;2.85;;
21754;SDS011;11039;50.028;19.938;2023-04-05T01:50:47;5.32;;;3.03;;
21754;SDS011;11039;50.028;19.938;2023-04-05T01:53:13;5.32;;;3.35;;
21754;SDS011;11039;50.028;19.938;2023-04-05T01:55:39;5.68;;;3.33;;
21754;SDS011;11039;50.028;19.938;2023-04-05T01:58:06;5.05;;;3.22;;
21754;SDS011;11039;50.028;19.938;2023-04-05T02:00:33;6.32;;;3.60;;
21754;SDS011;11039;50.028;19.938;2023-04-05T02:02:59;5.45;;;3.03;;
21754;SDS011;11039;50.028;19.938;2023-04-05T02:05:25;5.20;;;3.22;;
21754;SDS011;11039;50.028;19.938;2023-04-05T02:07:51;5.40;;;3.58;;
21754;SDS011;11039;50.028;19.938;2023-04-05T02:10:17;5.30;;;3.30;;
21754;SDS011;11039;50.028;19.938;2023-04-05T02:12:43;5.07;;;3.20;;
21754;SDS011;11039;50.028;19.938;2023-04-05T02:15:10;4.47;;;3.25;;
21754;SDS011;11039;50.028;19.938;2023-04-05T02:17:36;4.88;;;3.10;;
21754;SDS011;11039;50.028;19.938;2023-04-05T02:20:09;4.30;;;2.90;;
21754;SDS011;11039;50.028;19.938;2023-04-05T02:22:36;4.63;;;2.92;;
21754;SDS011;11039;50.028;19.938;2023-04-05T02:25:04;6.38;;;3.53;;
21754;SDS011;11039;50.028;19.938;2023-04-05T02:27:31;7.50;;;3.38;;
21754;SDS011;11039;50.028;19.938;2023-04-05T02:29:57;5.40;;;3.50;;
21754;SDS011;11039;50.028;19.938;2023-04-05T02:32:23;4.95;;;3.13;;
21754;SDS011;11039;50.028;19.938;2023-04-05T02:34:50;5.35;;;3.20;;
21754;SDS011;11039;50.028;19.938;2023-04-05T02:37:17;5.68;;;3.78;;
21754;SDS011;11039;50.028;19.938;2023-04-05T02:39:43;5.95;;;3.50;;
21754;SDS011;11039;50.028;19.938;2023-04-05T02:42:09;5.22;;;3.35;;
21754;SDS011;11039;50.028;19.938;2023-04-05T02:44:35;5.18;;;3.30;;
21754;SDS011;11039;50.028;19.938;2023-04-05T02:47:01;5.57;;;3.47;;
21754;SDS011;11039;50.028;19.938;2023-04-05T02:49:27;6.40;;;3.95;;
21754;SDS011;11039;50.028;19.938;2023-04-05T02:51:53;6.88;;;3.88;;
21754;SDS011;11039;50.028;19.938;2023-04-05T02:54:20;6.88;;;3.58;;
21754;SDS011;11039;50.028;19.938;2023-04-05T02:56:46;5.13;;;3.58;;
21754;SDS011;11039;50.028;19.938;2023-04-05T02:59:14;4.55;;;3.47;;
21754;SDS011;11039;50.028;19.938;2023-04-05T03:01:41;6.72;;;3.70;;
21754;SDS011;11039;50.028;19.938;2023-04-05T03:04:08;4.85;;;3.50;;
21754;SDS011;11039;50.028;19.938;2023-04-05T03:06:37;5.03;;;3.30;;
21754;SDS011;11039;50.028;19.938;2023-04-05T03:09:03;5.65;;;3.70;;
21754;SDS011;11039;50.028;19.938;2023-04-05T03:11:30;6.00;;;3.53;;
21754;SDS011;11039;50.028;19.938;2023-04-05T03:13:56;5.30;;;3.38;;
21754;SDS011;11039;50.028;19.938;2023-04-05T03:16:22;5.00;;;3.47;;
21754;SDS011;11039;50.028;19.938;2023-04-05T03:18:48;5.07;;;3.50;;
21754;SDS011;11039;50.028;19.938;2023-04-05T03:21:14;5.47;;;3.70;;
21754;SDS011;11039;50.028;19.938;2023-04-05T03:23:42;4.80;;;3.33;;
21754;SDS011;11039;50.028;19.938;2023-04-05T03:26:10;7.47;;;3.88;;
21754;SDS011;11039;50.028;19.938;2023-04-05T03:28:40;5.53;;;4.05;;
21754;SDS011;11039;50.028;19.938;2023-04-05T03:31:09;5.38;;;3.50;;
21754;SDS011;11039;50.028;19.938;2023-04-05T03:33:35;5.10;;;3.35;;
21754;SDS011;11039;50.028;19.938;2023-04-05T03:36:02;4.97;;;3.45;;
21754;SDS011;11039;50.028;19.938;2023-04-05T03:38:29;5.72;;;3.60;;
21754;SDS011;11039;50.028;19.938;2023-04-05T03:40:56;5.78;;;3.65;;
21754;SDS011;11039;50.028;19.938;2023-04-05T03:43:22;5.47;;;3.92;;
21754;SDS011;11039;50.028;19.938;2023-04-05T03:45:48;7.07;;;3.72;;
21754;SDS011;11039;50.028;19.938;2023-04-05T03:48:14;5.35;;;3.45;;
21754;SDS011;11039;50.028;19.938;2023-04-05T03:50:45;5.68;;;4.00;;
21754;SDS011;11039;50.028;19.938;2023-04-05T03:53:11;6.78;;;4.05;;
21754;SDS011;11039;50.028;19.938;2023-04-05T03:55:37;6.15;;;3.80;;
21754;SDS011;11039;50.028;19.938;2023-04-05T03:58:04;6.70;;;4.10;;
21754;SDS011;11039;50.028;19.938;2023-04-05T04:00:30;7.45;;;3.92;;
21754;SDS011;11039;50.028;19.938;2023-04-05T04:02:56;7.03;;;4.18;;
21754;SDS011;11039;50.028;19.938;2023-04-05T04:05:22;6.22;;;3.83;;
21754;SDS011;11039;50.028;19.938;2023-04-05T04:07:48;5.70;;;3.88;;
21754;SDS011;11039;50.028;19.938;2023-04-05T04:10:15;6.22;;;4.25;;
21754;SDS011;11039;50.028;19.938;2023-04-05T04:12:42;5.75;;;3.92;;
21754;SDS011;11039;50.028;19.938;2023-04-05T04:15:08;7.07;;;4.70;;
21754;SDS011;11039;50.028;19.938;2023-04-05T04:17:35;6.78;;;3.88;;
21754;SDS011;11039;50.028;19.938;2023-04-05T04:20:02;5.72;;;3.95;;
21754;SDS011;11039;50.028;19.938;2023-04-05T04:22:35;5.88;;;3.78;;
21754;SDS011;11039;50.028;19.938;2023-04-05T04:25:11;5.65;;;4.00;;
21754;SDS011;11039;50.028;19.938;2023-04-05T04:27:40;6.38;;;4.07;;
21754;SDS011;11039;50.028;19.938;2023-04-05T04:30:10;6.00;;;3.90;;
21754;SDS011;11039;50.028;19.938;2023-04-05T04:32:37;5.70;;;3.67;;
21754;SDS011;11039;50.028;19.938;2023-04-05T04:35:24;6.88;;;3.80;;
21754;SDS011;11039;50.028;19.938;2023-04-05T04:37:55;6.53;;;4.18;;
21754;SDS011;11039;50.028;19.938;2023-04-05T04:40:27;6.82;;;4.38;;
21754;SDS011;11039;50.028;19.938;2023-04-05T04:42:56;6.70;;;3.85;;
21754;SDS011;11039;50.028;19.938;2023-04-05T04:45:25;6.00;;;3.80;;
21754;SDS011;11039;50.028;19.938;2023-04-05T04:47:51;7.60;;;3.95;;
21754;SDS011;11039;50.028;19.938;2023-04-05T04:50:19;6.15;;;3.80;;
21754;SDS011;11039;50.028;19.938;2023-04-05T04:52:45;6.55;;;4.13;;
21754;SDS011;11039;50.028;19.938;2023-04-05T04:55:12;7.63;;;4.30;;
21754;SDS011;11039;50.028;19.938;2023-04-05T04:57:41;6.32;;;4.13;;
21754;SDS011;11039;50.028;19.938;2023-04-05T05:00:08;6.32;;;4.10;;
21754;SDS011;11039;50.028;19.938;2023-04-05T05:02:39;6.95;;;4.28;;
21754;SDS011;11039;50.028;19.938;2023-04-05T05:05:06;6.85;;;3.85;;
21754;SDS011;11039;50.028;19.938;2023-04-05T05:07:33;10.15;;;4.97;;
21754;SDS011;11039;50.028;19.938;2023-04-05T05:09:59;6.45;;;4.43;;
21754;SDS011;11039;50.028;19.938;2023-04-05T05:12:25;6.78;;;3.97;;
21754;SDS011;11039;50.028;19.938;2023-04-05T05:14:52;8.27;;;4.35;;
21754;SDS011;11039;50.028;19.938;2023-04-05T05:17:18;5.30;;;3.70;;
21754;SDS011;11039;50.028;19.938;2023-04-05T05:19:44;8.07;;;4.05;;
21754;SDS011;11039;50.028;19.938;2023-04-05T05:22:10;9.00;;;4.90;;
21754;SDS011;11039;50.028;19.938;2023-04-05T05:24:36;7.72;;;4.93;;
21754;SDS011;11039;50.028;19.938;2023-04-05T05:27:02;7.63;;;4.60;;
21754;SDS011;11039;50.028;19.938;2023-04-05T05:29:28;5.97;;;4.15;;
21754;SDS011;11039;50.028;19.938;2023-04-05T05:31:55;6.95;;;4.53;;
21754;SDS011;11039;50.028;19.938;2023-04-05T05:34:21;6.78;;;4.50;;
21754;SDS011;11039;50.028;19.938;2023-04-05T05:36:48;7.32;;;4.72;;
21754;SDS011;11039;50.028;19.938;2023-04-05T05:39:15;7.90;;;4.78;;
21754;SDS011;11039;50.028;19.938;2023-04-05T05:41:41;6.35;;;4.45;;
21754;SDS011;11039;50.028;19.938;2023-04-05T05:44:07;6.40;;;4.45;;
21754;SDS011;11039;50.028;19.938;2023-04-05T05:46:33;8.35;;;4.90;;
21754;SDS011;11039;50.028;19.938;2023-04-05T05:48:59;6.93;;;4.68;;
21754;SDS011;11039;50.028;19.938;2023-04-05T05:51:25;6.80;;;4.40;;
21754;SDS011;11039;50.028;19.938;2023-04-05T05:53:51;7.45;;;4.82;;
21754;SDS011;11039;50.028;19.938;2023-04-05T05:56:17;7.10;;;4.28;;
21754;SDS011;11039;50.028;19.938;2023-04-05T05:58:43;7.20;;;4.63;;
21754;SDS011;11039;50.028;19.938;2023-04-05T06:01:10;7.20;;;4.72;;
21754;SDS011;11039;50.028;19.938;2023-04-05T06:03:36;7.07;;;4.95;;
21754;SDS011;11039;50.028;19.938;2023-04-05T06:06:02;7.85;;;4.97;;
21754;SDS011;11039;50.028;19.938;2023-04-05T06:08:32;7.28;;;5.18;;
21754;SDS011;11039;50.028;19.938;2023-04-05T06:10:58;8.57;;;5.03;;
21754;SDS011;11039;50.028;19.938;2023-04-05T06:13:25;8.40;;;5.20;;
21754;SDS011;11039;50.028;19.938;2023-04-05T06:15:51;7.63;;;5.00;;
21754;SDS011;11039;50.028;19.938;2023-04-05T06:18:17;7.32;;;4.90;;
21754;SDS011;11039;50.028;19.938;2023-04-05T06:20:44;8.90;;;4.97;;
21754;SDS011;11039;50.028;19.938;2023-04-05T06:23:10;7.72;;;4.40;;
21754;SDS011;11039;50.028;19.938;2023-04-05T06:25:36;7.20;;;4.57;;
21754;SDS011;11039;50.028;19.938;2023-04-05T06:28:03;7.05;;;4.63;;
21754;SDS011;11039;50.028;19.938;2023-04-05T06:30:29;9.05;;;5.20;;
21754;SDS011;11039;50.028;19.938;2023-04-05T06:32:56;9.73;;;5.47;;
21754;SDS011;11039;50.028;19.938;2023-04-05T06:35:23;9.45;;;5.40;;
21754;SDS011;11039;50.028;19.938;2023-04-05T06:37:49;9.32;;;5.88;;
21754;SDS011;11039;50.028;19.938;2023-04-05T06:40:16;8.75;;;5.97;;
21754;SDS011;11039;50.028;19.938;2023-04-05T06:42:42;9.73;;;6.13;;
21754;SDS011;11039;50.028;19.938;2023-04-05T06:45:08;8.95;;;6.25;;
21754;SDS011;11039;50.028;19.938;2023-04-05T06:47:38;9.98;;;6.63;;
21754;SDS011;11039;50.028;19.938;2023-04-05T06:50:05;12.52;;;6.80;;
21754;SDS011;11039;50.028;19.938;2023-04-05T06:52:32;13.82;;;6.60;;
21754;SDS011;11039;50.028;19.938;2023-04-05T06:54:58;11.40;;;7.40;;
21754;SDS011;11039;50.028;19.938;2023-04-05T06:57:25;12.38;;;7.78;;
21754;SDS011;11039;50.028;19.938;2023-04-05T06:59:51;15.77;;;7.00;;
21754;SDS011;11039;50.028;19.938;2023-04-05T07:02:18;13.55;;;7.35;;
21754;SDS011;11039;50.028;19.938;2023-04-05T07:04:44;12.15;;;7.22;;
21754;SDS011;11039;50.028;19.938;2023-04-05T07:07:11;11.63;;;7.15;;
21754;SDS011;11039;50.028;19.938;2023-04-05T07:09:37;12.35;;;7.13;;
21754;SDS011;11039;50.028;19.938;2023-04-05T07:12:04;10.80;;;6.82;;
21754;SDS011;11039;50.028;19.938;2023-04-05T07:14:31;15.13;;;7.72;;
21754;SDS011;11039;50.028;19.938;2023-04-05T07:16:57;19.17;;;8.00;;
21754;SDS011;11039;50.028;19.938;2023-04-05T07:19:23;16.65;;;7.82;;
21754;SDS011;11039;50.028;19.938;2023-04-05T07:21:50;18.00;;;8.85;;
21754;SDS011;11039;50.028;19.938;2023-04-05T07:24:16;19.35;;;8.43;;
21754;SDS011;11039;50.028;19.938;2023-04-05T07:26:42;19.05;;;8.48;;
21754;SDS011;11039;50.028;19.938;2023-04-05T07:29:09;20.55;;;8.60;;
21754;SDS011;11039;50.028;19.938;2023-04-05T07:31:36;24.67;;;9.05;;
21754;SDS011;11039;50.028;19.938;2023-04-05T07:34:03;23.38;;;9.30;;
21754;SDS011;11039;50.028;19.938;2023-04-05T07:36:29;17.00;;;9.02;;
21754;SDS011;11039;50.028;19.938;2023-04-05T07:38:55;22.83;;;9.38;;
21754;SDS011;11039;50.028;19.938;2023-04-05T07:41:23;22.13;;;8.50;;
21754;SDS011;11039;50.028;19.938;2023-04-05T07:43:49;22.30;;;8.95;;
21754;SDS011;11039;50.028;19.938;2023-04-05T07:46:15;28.55;;;10.27;;
21754;SDS011;11039;50.028;19.938;2023-04-05T07:48:41;25.55;;;8.82;;
21754;SDS011;11039;50.028;19.938;2023-04-05T07:51:08;23.83;;;9.50;;
21754;SDS011;11039;50.028;19.938;2023-04-05T07:53:35;22.33;;;9.15;;
21754;SDS011;11039;50.028;19.938;2023-04-05T07:56:05;20.55;;;9.00;;
21754;SDS011;11039;50.028;19.938;2023-04-05T07:58:31;21.77;;;9.32;;
21754;SDS011;11039;50.028;19.938;2023-04-05T08:00:58;27.08;;;9.00;;
21754;SDS011;11039;50.028;19.938;2023-04-05T08:03:24;21.88;;;9.23;;
21754;SDS011;11039;50.028;19.938;2023-04-05T08:05:51;23.52;;;9.63;;
21754;SDS011;11039;50.028;19.938;2023-04-05T08:08:17;21.90;;;8.90;;
21754;SDS011;11039;50.028;19.938;2023-04-05T08:10:43;21.80;;;8.60;;
21754;SDS011;11039;50.028;19.938;2023-04-05T08:13:09;21.42;;;8.35;;
21754;SDS011;11039;50.028;19.938;2023-04-05T08:15:35;22.45;;;8.32;;
21754;SDS011;11039;50.028;19.938;2023-04-05T08:18:01;23.60;;;8.55;;
21754;SDS011;11039;50.028;19.938;2023-04-05T08:20:27;21.25;;;7.95;;
21754;SDS011;11039;50.028;19.938;2023-04-05T08:22:53;22.55;;;8.02;;
21754;SDS011;11039;50.028;19.938;2023-04-05T08:25:19;17.48;;;8.02;;
21754;SDS011;11039;50.028;19.938;2023-04-05T08:27:45;16.65;;;8.18;;
21754;SDS011;11039;50.028;19.938;2023-04-05T08:30:12;18.05;;;7.93;;
21754;SDS011;11039;50.028;19.938;2023-04-05T08:32:38;15.57;;;7.88;;
21754;SDS011;11039;50.028;19.938;2023-04-05T08:35:05;15.27;;;7.55;;
21754;SDS011;11039;50.028;19.938;2023-04-05T08:37:34;16.70;;;7.50;;
21754;SDS011;11039;50.028;19.938;2023-04-05T08:40:00;17.40;;;8.20;;
21754;SDS011;11039;50.028;19.938;2023-04-05T08:42:31;22.13;;;7.90;;
21754;SDS011;11039;50.028;19.938;2023-04-05T08:44:59;16.00;;;8.20;;
21754;SDS011;11039;50.028;19.938;2023-04-05T08:47:27;15.27;;;7.80;;
21754;SDS011;11039;50.028;19.938;2023-04-05T08:49:54;16.67;;;7.20;;
21754;SDS011;11039;50.028;19.938;2023-04-05T08:52:20;19.88;;;7.72;;
21754;SDS011;11039;50.028;19.938;2023-04-05T08:54:46;15.60;;;7.75;;
21754;SDS011;11039;50.028;19.938;2023-04-05T08:57:12;15.82;;;7.10;;
21754;SDS011;11039;50.028;19.938;2023-04-05T08:59:39;14.20;;;7.53;;
21754;SDS011;11039;50.028;19.938;2023-04-05T09:02:16;16.35;;;7.78;;
21754;SDS011;11039;50.028;19.938;2023-04-05T09:04:43;14.88;;;6.97;;
21754;SDS011;11039;50.028;19.938;2023-04-05T09:07:10;16.63;;;7.30;;
21754;SDS011;11039;50.028;19.938;2023-04-05T09:09:36;17.50;;;6.85;;
21754;SDS011;11039;50.028;19.938;2023-04-05T09:12:03;13.85;;;6.97;;
21754;SDS011;11039;50.028;19.938;2023-04-05T09:14:29;15.68;;;6.57;;
21754;SDS011;11039;50.028;19.938;2023-04-05T09:16:55;16.60;;;7.00;;
21754;SDS011;11039;50.028;19.938;2023-04-05T09:19:22;14.23;;;6.38;;
21754;SDS011;11039;50.028;19.938;2023-04-05T09:24:35;13.13;;;5.90;;
21754;SDS011;11039;50.028;19.938;2023-04-05T09:27:07;15.45;;;5.65;;
21754;SDS011;11039;50.028;19.938;2023-04-05T09:29:33;18.55;;;6.50;;
21754;SDS011;11039;50.028;19.938;2023-04-05T09:32:00;13.77;;;6.35;;
21754;SDS011;11039;50.028;19.938;2023-04-05T09:34:28;15.18;;;5.88;;
21754;SDS011;11039;50.028;19.938;2023-04-05T09:36:55;12.50;;;5.78;;
21754;SDS011;11039;50.028;19.938;2023-04-05T09:39:26;14.50;;;5.32;;
21754;SDS011;11039;50.028;19.938;2023-04-05T09:42:14;14.88;;;6.30;;
21754;SDS011;11039;50.028;19.938;2023-04-05T09:47:17;10.98;;;5.47;;
21754;SDS011;11039;50.028;19.938;2023-04-05T09:49:44;11.40;;;5.32;;
21754;SDS011;11039;50.028;19.938;2023-04-05T09:52:43;11.43;;;5.10;;
21754;SDS011;11039;50.028;19.938;2023-04-05T09:55:03;14.48;;;6.15;;
21754;SDS011;11039;50.028;19.938;2023-04-05T09:57:34;11.23;;;5.38;;
21754;SDS011;11039;50.028;19.938;2023-04-05T10:00:01;11.50;;;4.85;;
21754;SDS011;11039;50.028;19.938;2023-04-05T10:02:36;10.57;;;4.95;;
21754;SDS011;11039;50.028;19.938;2023-04-05T10:05:05;13.60;;;5.25;;
21754;SDS011;11039;50.028;19.938;2023-04-05T10:07:32;11.77;;;5.40;;
21754;SDS011;11039;50.028;19.938;2023-04-05T10:09:58;11.38;;;5.10;;
21754;SDS011;11039;50.028;19.938;2023-04-05T10:12:25;7.65;;;5.15;;
21754;SDS011;11039;50.028;19.938;2023-04-05T10:14:51;10.23;;;4.88;;
21754;SDS011;11039;50.028;19.938;2023-04-05T10:17:27;8.70;;;4.65;;
21754;SDS011;11039;50.028;19.938;2023-04-05T10:22:35;9.40;;;5.03;;
21754;SDS011;11039;50.028;19.938;2023-04-05T10:25:07;9.85;;;4.70;;
21754;SDS011;11039;50.028;19.938;2023-04-05T10:27:43;7.25;;;4.20;;
21754;SDS011;11039;50.028;19.938;2023-04-05T10:30:12;10.35;;;3.83;;
21754;SDS011;11039;50.028;19.938;2023-04-05T10:33:24;7.63;;;3.92;;
21754;SDS011;11039;50.028;19.938;2023-04-05T10:35:30;7.68;;;3.78;;
21754;SDS011;11039;50.028;19.938;2023-04-05T10:38:15;8.35;;;4.00;;
21754;SDS011;11039;50.028;19.938;2023-04-05T10:40:42;9.20;;;4.07;;
21754;SDS011;11039;50.028;19.938;2023-04-05T10:43:18;8.45;;;4.47;;
21754;SDS011;11039;50.028;19.938;2023-04-05T10:45:46;6.68;;;3.90;;
21754;SDS011;11039;50.028;19.938;2023-04-05T10:48:15;6.60;;;4.00;;
21754;SDS011;11039;50.028;19.938;2023-04-05T10:50:41;8.35;;;3.35;;
21754;SDS011;11039;50.028;19.938;2023-04-05T10:53:08;8.40;;;4.05;;
21754;SDS011;11039;50.028;19.938;2023-04-05T10:55:34;8.77;;;3.72;;
21754;SDS011;11039;50.028;19.938;2023-04-05T10:58:01;14.27;;;3.90;;
21754;SDS011;11039;50.028;19.938;2023-04-05T11:00:27;11.18;;;3.90;;
21754;SDS011;11039;50.028;19.938;2023-04-05T11:02:53;15.88;;;4.20;;
21754;SDS011;11039;50.028;19.938;2023-04-05T11:05:30;6.97;;;3.65;;
21754;SDS011;11039;50.028;19.938;2023-04-05T11:08:06;17.90;;;3.92;;
21754;SDS011;11039;50.028;19.938;2023-04-05T11:10:33;13.70;;;3.63;;
21754;SDS011;11039;50.028;19.938;2023-04-05T11:23:06;8.85;;;3.72;;
21754;SDS011;11039;50.028;19.938;2023-04-05T11:25:36;4.78;;;3.25;;
21754;SDS011;11039;50.028;19.938;2023-04-05T11:28:02;6.45;;;3.55;;
21754;SDS011;11039;50.028;19.938;2023-04-05T11:30:48;6.88;;;3.17;;
21754;SDS011;11039;50.028;19.938;2023-04-05T11:36:05;9.60;;;4.65;;
21754;SDS011;11039;50.028;19.938;2023-04-05T11:38:31;9.38;;;4.57;;
21754;SDS011;11039;50.028;19.938;2023-04-05T11:41:04;8.63;;;4.57;;
21754;SDS011;11039;50.028;19.938;2023-04-05T11:43:31;8.23;;;5.05;;
21754;SDS011;11039;50.028;19.938;2023-04-05T11:46:02;7.75;;;4.82;;
21754;SDS011;11039;50.028;19.938;2023-04-05T11:48:38;9.48;;;4.80;;
21754;SDS011;11039;50.028;19.938;2023-04-05T11:51:06;7.22;;;4.60;;
21754;SDS011;11039;50.028;19.938;2023-04-05T11:53:36;8.10;;;4.28;;
21754;SDS011;11039;50.028;19.938;2023-04-05T11:56:06;6.53;;;4.38;;
21754;SDS011;11039;50.028;19.938;2023-04-05T11:58:33;9.30;;;4.30;;
21754;SDS011;11039;50.028;19.938;2023-04-05T12:01:00;4.93;;;3.70;;
21754;SDS011;11039;50.028;19.938;2023-04-05T12:03:33;7.00;;;4.13;;
21754;SDS011;11039;50.028;19.938;2023-04-05T12:06:00;5.68;;;3.53;;
21754;SDS011;11039;50.028;19.938;2023-04-05T12:08:47;5.32;;;3.75;;
21754;SDS011;11039;50.028;19.938;2023-04-05T12:11:15;6.22;;;4.07;;
21754;SDS011;11039;50.028;19.938;2023-04-05T12:13:42;5.55;;;3.28;;
21754;SDS011;11039;50.028;19.938;2023-04-05T12:16:10;5.47;;;3.30;;
21754;SDS011;11039;50.028;19.938;2023-04-05T12:18:36;5.85;;;3.35;;
21754;SDS011;11039;50.028;19.938;2023-04-05T12:21:03;6.63;;;3.83;;
21754;SDS011;11039;50.028;19.938;2023-04-05T12:23:30;4.85;;;3.30;;
21754;SDS011;11039;50.028;19.938;2023-04-05T12:25:56;4.32;;;3.10;;
21754;SDS011;11039;50.028;19.938;2023-04-05T12:28:23;6.68;;;3.00;;
21754;SDS011;11039;50.028;19.938;2023-04-05T12:30:53;4.68;;;2.90;;
21754;SDS011;11039;50.028;19.938;2023-04-05T12:33:27;5.05;;;3.15;;
21754;SDS011;11039;50.028;19.938;2023-04-05T12:35:54;7.03;;;3.17;;
21754;SDS011;11039;50.028;19.938;2023-04-05T12:38:20;5.28;;;2.60;;
21754;SDS011;11039;50.028;19.938;2023-04-05T12:40:51;5.78;;;3.00;;
21754;SDS011;11039;50.028;19.938;2023-04-05T12:43:17;5.10;;;2.83;;
21754;SDS011;11039;50.028;19.938;2023-04-05T12:45:46;4.45;;;2.80;;
21754;SDS011;11039;50.028;19.938;2023-04-05T12:48:18;5.50;;;3.00;;
21754;SDS011;11039;50.028;19.938;2023-04-05T12:50:46;5.68;;;2.90;;
21754;SDS011;11039;50.028;19.938;2023-04-05T12:53:16;6.93;;;2.97;;
21754;SDS011;11039;50.028;19.938;2023-04-05T12:55:46;5.57;;;2.70;;
21754;SDS011;11039;50.028;19.938;2023-04-05T12:58:13;5.68;;;3.15;;
21754;SDS011;11039;50.028;19.938;2023-04-05T13:00:41;6.88;;;3.63;;
21754;SDS011;11039;50.028;19.938;2023-04-05T13:03:13;7.90;;;4.65;;
21754;SDS011;11039;50.028;19.938;2023-04-05T13:05:40;7.55;;;4.32;;
21754;SDS011;11039;50.028;19.938;2023-04-05T13:08:06;8.10;;;4.18;;
21754;SDS011;11039;50.028;19.938;2023-04-05T13:10:32;9.05;;;4.55;;
21754;SDS011;11039;50.028;19.938;2023-04-05T13:12:58;8.95;;;5.15;;
21754;SDS011;11039;50.028;19.938;2023-04-05T13:15:24;7.82;;;5.22;;
21754;SDS011;11039;50.028;19.938;2023-04-05T13:17:51;9.23;;;5.07;;
21754;SDS011;11039;50.028;19.938;2023-04-05T13:20:18;11.35;;;5.43;;
21754;SDS011;11039;50.028;19.938;2023-04-05T13:22:45;8.02;;;5.00;;
21754;SDS011;11039;50.028;19.938;2023-04-05T13:25:11;8.65;;;5.47;;
21754;SDS011;11039;50.028;19.938;2023-04-05T13:27:37;8.70;;;5.43;;
21754;SDS011;11039;50.028;19.938;2023-04-05T13:30:03;7.38;;;5.43;;
21754;SDS011;11039;50.028;19.938;2023-04-05T13:32:29;9.15;;;5.53;;
21754;SDS011;11039;50.028;19.938;2023-04-05T13:34:55;8.45;;;6.28;;
21754;SDS011;11039;50.028;19.938;2023-04-05T13:37:21;10.73;;;6.00;;
21754;SDS011;11039;50.028;19.938;2023-04-05T13:39:48;11.95;;;6.70;;
21754;SDS011;11039;50.028;19.938;2023-04-05T13:42:14;8.25;;;5.65;;
21754;SDS011;11039;50.028;19.938;2023-04-05T13:44:40;7.57;;;6.05;;
21754;SDS011;11039;50.028;19.938;2023-04-05T13:47:06;9.35;;;6.72;;
21754;SDS011;11039;50.028;19.938;2023-04-05T13:49:33;8.50;;;6.57;;
21754;SDS011;11039;50.028;19.938;2023-04-05T13:51:59;9.57;;;5.95;;
21754;SDS011;11039;50.028;19.938;2023-04-05T13:54:25;9.25;;;6.28;;
21754;SDS011;11039;50.028;19.938;2023-04-05T13:56:51;12.63;;;6.70;;
21754;SDS011;11039;50.028;19.938;2023-04-05T13:59:17;10.13;;;7.10;;
21754;SDS011;11039;50.028;19.938;2023-04-05T14:01:44;10.88;;;7.28;;
21754;SDS011;11039;50.028;19.938;2023-04-05T14:04:10;9.98;;;7.00;;
21754;SDS011;11039;50.028;19.938;2023-04-05T14:06:36;11.93;;;7.80;;
21754;SDS011;11039;50.028;19.938;2023-04-05T14:09:03;12.35;;;6.80;;
21754;SDS011;11039;50.028;19.938;2023-04-05T14:11:30;8.70;;;6.03;;
21754;SDS011;11039;50.028;19.938;2023-04-05T14:13:56;8.15;;;5.80;;
21754;SDS011;11039;50.028;19.938;2023-04-05T14:16:22;9.00;;;6.15;;
21754;SDS011;11039;50.028;19.938;2023-04-05T14:18:49;9.73;;;6.13;;
21754;SDS011;11039;50.028;19.938;2023-04-05T14:21:15;7.20;;;5.38;;
21754;SDS011;11039;50.028;19.938;2023-04-05T14:23:41;9.15;;;6.53;;
21754;SDS011;11039;50.028;19.938;2023-04-05T14:26:07;13.40;;;6.75;;
21754;SDS011;11039;50.028;19.938;2023-04-05T14:28:33;10.60;;;6.40;;
21754;SDS011;11039;50.028;19.938;2023-04-05T14:30:59;10.88;;;7.00;;
21754;SDS011;11039;50.028;19.938;2023-04-05T14:33:25;11.32;;;6.35;;
21754;SDS011;11039;50.028;19.938;2023-04-05T14:35:52;13.05;;;6.95;;
21754;SDS011;11039;50.028;19.938;2023-04-05T14:38:18;8.98;;;6.20;;
21754;SDS011;11039;50.028;19.938;2023-04-05T14:40:44;12.10;;;6.43;;
21754;SDS011;11039;50.028;19.938;2023-04-05T14:43:10;9.60;;;6.10;;
21754;SDS011;11039;50.028;19.938;2023-04-05T14:45:37;8.30;;;5.72;;
21754;SDS011;11039;50.028;19.938;2023-04-05T14:48:03;9.25;;;5.75;;
21754;SDS011;11039;50.028;19.938;2023-04-05T14:50:29;9.27;;;5.70;;
21754;SDS011;11039;50.028;19.938;2023-04-05T14:52:59;10.13;;;6.30;;
21754;SDS011;11039;50.028;19.938;2023-04-05T14:55:26;10.60;;;6.25;;
21754;SDS011;11039;50.028;19.938;2023-04-05T14:57:52;11.43;;;6.03;;
21754;SDS011;11039;50.028;19.938;2023-04-05T15:00:19;8.40;;;5.57;;
21754;SDS011;11039;50.028;19.938;2023-04-05T15:02:45;8.55;;;5.20;;
21754;SDS011;11039;50.028;19.938;2023-04-05T15:05:11;8.43;;;5.47;;